Time,TemperatureF,DewpointF,PressureIn,WindDirection,WindDirectionDegrees,WindSpeedMPH,WindSpeedGustMPH,Humidity,HourlyPrecipIn,Conditions,Clouds,dailyrainin,SoftwareType,DateUTC
2013-01-15 00:04:00,32.7,25.6,30.20,NNE,20,0.0,-999.0,75,0.00,,,0.00,Wunderground v.1.15,2013-01-15 05:04:00,
2013-01-15 00:05:00,32.6,25.6,30.20,NNE,20,0.0,-999.0,75,0.00,,,0.00,Wunderground v.1.15,2013-01-15 05:05:00,
2013-01-15 00:06:00,32.6,25.9,30.20,NNE,20,0.0,-999.0,76,0.00,,,0.00,Wunderground v.1.15,2013-01-15 05:06:00,
2013-01-15 00:12:00,32.5,26.1,30.21,NNE,20,0.0,-999.0,77,0.00,,,0.00,Wunderground v.1.15,2013-01-15 05:12:00,
2013-01-15 00:18:00,32.1,26.6,30.22,NNE,20,0.0,-999.0,80,0.00,,,0.00,Wunderground v.1.15,2013-01-15 05:18:00,
2013-01-15 00:24:00,32.0,26.2,30.23,West,278,0.0,-999.0,79,0.00,,,0.00,Wunderground v.1.15,2013-01-15 05:24:00,
2013-01-15 00:30:00,32.0,26.2,30.23,West,278,0.0,-999.0,79,0.00,,,0.00,Wunderground v.1.15,2013-01-15 05:30:00,
2013-01-15 00:36:00,31.9,25.5,30.23,West,278,0.0,-999.0,77,0.00,,,0.00,Wunderground v.1.15,2013-01-15 05:36:00,
2013-01-15 00:41:00,32.3,25.3,30.24,West,278,0.0,-999.0,75,0.00,,,0.00,Wunderground v.1.15,2013-01-15 05:41:00,
2013-01-15 00:46:00,32.7,25.0,30.24,West,278,0.0,-999.0,73,0.00,,,0.00,Wunderground v.1.15,2013-01-15 05:46:00,
2013-01-15 00:51:00,33.0,25.3,30.24,West,280,0.0,-999.0,73,0.00,,,0.00,Wunderground v.1.15,2013-01-15 05:51:00,
2013-01-15 00:57:00,33.7,24.6,30.24,NW,307,0.0,-999.0,69,0.00,,,0.00,Wunderground v.1.15,2013-01-15 05:57:00,
2013-01-15 01:04:00,33.7,25.0,30.24,NW,307,0.0,-999.0,70,0.00,,,0.00,Wunderground v.1.15,2013-01-15 06:04:00,
2013-01-15 01:10:00,33.7,25.0,30.25,NW,307,0.0,-999.0,70,0.00,,,0.00,Wunderground v.1.15,2013-01-15 06:10:00,
2013-01-15 01:16:00,33.8,25.0,30.25,WSW,252,0.0,-999.0,70,0.00,,,0.00,Wunderground v.1.15,2013-01-15 06:16:00,
2013-01-15 01:22:00,33.7,25.6,30.25,WSW,252,0.0,-999.0,72,0.00,,,0.00,Wunderground v.1.15,2013-01-15 06:22:00,
2013-01-15 01:28:00,33.4,25.3,30.25,WSW,252,0.0,-999.0,72,0.00,,,0.00,Wunderground v.1.15,2013-01-15 06:28:00,
2013-01-15 01:33:00,33.1,24.7,30.24,WSW,253,0.0,-999.0,71,0.00,,,0.00,Wunderground v.1.15,2013-01-15 06:33:00,
2013-01-15 01:38:00,33.1,25.7,30.24,WSW,253,0.0,-999.0,74,0.00,,,0.00,Wunderground v.1.15,2013-01-15 06:38:00,
2013-01-15 01:43:00,32.7,26.3,30.24,WSW,252,0.0,-999.0,77,0.00,,,0.00,Wunderground v.1.15,2013-01-15 06:43:00,
2013-01-15 01:49:00,32.7,25.6,30.24,WSW,253,0.0,-999.0,75,0.00,,,0.00,Wunderground v.1.15,2013-01-15 06:49:00,
2013-01-15 01:54:00,32.5,25.5,30.24,WSW,253,0.0,-999.0,75,0.00,,,0.00,Wunderground v.1.15,2013-01-15 06:54:00,
2013-01-15 01:59:00,32.2,25.5,30.24,WSW,252,0.0,-999.0,76,0.00,,,0.00,Wunderground v.1.15,2013-01-15 06:59:00,
2013-01-15 02:04:00,32.2,25.5,30.25,WSW,253,0.0,-999.0,76,0.00,,,0.00,Wunderground v.1.15,2013-01-15 07:04:00,
2013-01-15 02:10:00,32.0,25.6,30.25,WSW,252,0.0,-999.0,77,0.00,,,0.00,Wunderground v.1.15,2013-01-15 07:10:00,
2013-01-15 02:16:00,31.7,25.3,30.24,WSW,252,0.0,-999.0,77,0.00,,,0.00,Wunderground v.1.15,2013-01-15 07:16:00,
2013-01-15 02:21:00,31.4,25.3,30.23,WSW,253,0.0,-999.0,78,0.00,,,0.00,Wunderground v.1.15,2013-01-15 07:21:00,
2013-01-15 02:27:00,31.2,25.4,30.23,WSW,253,0.0,-999.0,79,0.00,,,0.00,Wunderground v.1.15,2013-01-15 07:27:00,
2013-01-15 02:32:00,31.0,25.2,30.23,WSW,252,0.0,-999.0,79,0.00,,,0.00,Wunderground v.1.15,2013-01-15 07:32:00,
2013-01-15 02:38:00,30.8,25.4,30.22,WSW,252,0.0,-999.0,80,0.00,,,0.00,Wunderground v.1.15,2013-01-15 07:38:00,
2013-01-15 02:43:00,30.6,25.5,30.23,WSW,252,0.0,-999.0,81,0.00,,,0.00,Wunderground v.1.15,2013-01-15 07:43:00,
2013-01-15 02:48:00,30.6,26.3,30.22,WSW,253,0.0,-999.0,84,0.00,,,0.00,Wunderground v.1.15,2013-01-15 07:48:00,
2013-01-15 02:53:00,30.5,26.2,30.22,WSW,253,0.0,-999.0,84,0.00,,,0.00,Wunderground v.1.15,2013-01-15 07:53:00,
2013-01-15 02:59:00,30.6,25.8,30.23,WSW,252,0.0,-999.0,82,0.00,,,0.00,Wunderground v.1.15,2013-01-15 07:59:00,
2013-01-15 03:04:00,30.5,26.0,30.24,WSW,252,0.0,-999.0,83,0.00,,,0.00,Wunderground v.1.15,2013-01-15 08:04:00,
2013-01-15 03:09:00,30.5,26.0,30.24,WSW,253,0.0,-999.0,83,0.00,,,0.00,Wunderground v.1.15,2013-01-15 08:09:00,
2013-01-15 03:14:00,30.4,25.9,30.24,WSW,252,0.0,-999.0,83,0.00,,,0.00,Wunderground v.1.15,2013-01-15 08:14:00,
2013-01-15 03:19:00,30.2,25.9,30.23,WSW,253,0.0,-999.0,84,0.00,,,0.00,Wunderground v.1.15,2013-01-15 08:19:00,
2013-01-15 03:25:00,30.1,26.1,30.23,WSW,253,0.0,-999.0,85,0.00,,,0.00,Wunderground v.1.15,2013-01-15 08:25:00,
2013-01-15 03:31:00,30.0,26.0,30.22,WSW,253,0.0,-999.0,85,0.00,,,0.00,Wunderground v.1.15,2013-01-15 08:31:00,
2013-01-15 03:36:00,29.8,25.8,30.22,WSW,252,0.0,-999.0,85,0.00,,,0.00,Wunderground v.1.15,2013-01-15 08:36:00,
2013-01-15 03:42:00,29.7,26.0,30.22,WSW,253,0.0,-999.0,86,0.00,,,0.00,Wunderground v.1.15,2013-01-15 08:42:00,
2013-01-15 03:48:00,29.7,26.0,30.22,WSW,253,0.0,-999.0,86,0.00,,,0.00,Wunderground v.1.15,2013-01-15 08:48:00,
2013-01-15 03:53:00,29.6,25.9,30.22,WSW,252,0.0,-999.0,86,0.00,,,0.00,Wunderground v.1.15,2013-01-15 08:53:00,
2013-01-15 03:59:00,29.4,26.0,30.22,WSW,253,0.0,-999.0,87,0.00,,,0.00,Wunderground v.1.15,2013-01-15 08:59:00,
2013-01-15 04:04:00,29.4,26.0,30.22,WSW,252,0.0,-999.0,87,0.00,,,0.00,Wunderground v.1.15,2013-01-15 09:04:00,
2013-01-15 04:10:00,29.2,25.8,30.22,WSW,253,0.0,-999.0,87,0.00,,,0.00,Wunderground v.1.15,2013-01-15 09:10:00,
2013-01-15 04:15:00,29.1,25.7,30.21,WSW,253,0.0,-999.0,87,0.00,,,0.00,Wunderground v.1.15,2013-01-15 09:15:00,
2013-01-15 04:21:00,28.8,25.4,30.21,WSW,252,0.0,-999.0,87,0.00,,,0.00,Wunderground v.1.15,2013-01-15 09:21:00,
2013-01-15 04:27:00,28.5,25.4,30.21,WSW,252,0.0,-999.0,88,0.00,,,0.00,Wunderground v.1.15,2013-01-15 09:27:00,
2013-01-15 04:33:00,28.1,25.0,30.21,WSW,253,0.0,-999.0,88,0.00,,,0.00,Wunderground v.1.15,2013-01-15 09:33:00,
2013-01-15 04:39:00,27.8,25.0,30.21,WSW,252,0.0,-999.0,89,0.00,,,0.00,Wunderground v.1.15,2013-01-15 09:39:00,
2013-01-15 04:44:00,27.4,24.6,30.21,WSW,252,0.0,-999.0,89,0.00,,,0.00,Wunderground v.1.15,2013-01-15 09:44:00,
2013-01-15 04:49:00,27.2,24.7,30.21,WSW,253,0.0,-999.0,90,0.00,,,0.00,Wunderground v.1.15,2013-01-15 09:49:00,
2013-01-15 04:55:00,26.9,24.6,30.22,WSW,253,0.0,-999.0,91,0.00,,,0.00,Wunderground v.1.15,2013-01-15 09:55:00,
2013-01-15 05:04:00,26.7,24.4,30.22,WSW,252,0.0,-999.0,91,0.00,,,0.00,Wunderground v.1.15,2013-01-15 10:04:00,
2013-01-15 05:10:00,26.4,24.1,30.23,WSW,253,0.0,-999.0,91,0.00,,,0.00,Wunderground v.1.15,2013-01-15 10:10:00,
2013-01-15 05:15:00,26.2,23.9,30.23,WSW,253,0.0,-999.0,91,0.00,,,0.00,Wunderground v.1.15,2013-01-15 10:15:00,
2013-01-15 05:21:00,26.1,24.1,30.23,WSW,253,0.0,-999.0,92,0.00,,,0.00,Wunderground v.1.15,2013-01-15 10:21:00,
2013-01-15 05:27:00,25.9,23.9,30.23,WSW,253,0.0,-999.0,92,0.00,,,0.00,Wunderground v.1.15,2013-01-15 10:27:00,
2013-01-15 05:32:00,25.9,23.9,30.24,WSW,252,0.0,-999.0,92,0.00,,,0.00,Wunderground v.1.15,2013-01-15 10:32:00,
2013-01-15 05:38:00,25.9,24.2,30.24,WSW,252,0.0,-999.0,93,0.00,,,0.00,Wunderground v.1.15,2013-01-15 10:38:00,
2013-01-15 05:44:00,25.9,23.9,30.24,WSW,253,0.0,-999.0,92,0.00,,,0.00,Wunderground v.1.15,2013-01-15 10:44:00,
2013-01-15 05:49:00,25.9,23.9,30.23,WSW,253,0.0,-999.0,92,0.00,,,0.00,Wunderground v.1.15,2013-01-15 10:49:00,
2013-01-15 05:55:00,25.9,24.2,30.23,WSW,253,0.0,-999.0,93,0.00,,,0.00,Wunderground v.1.15,2013-01-15 10:55:00,
2013-01-15 06:00:00,25.9,24.2,30.23,WSW,253,0.0,-999.0,93,0.00,,,0.00,Wunderground v.1.15,2013-01-15 11:00:00,
2013-01-15 06:06:00,25.8,24.1,30.23,WSW,253,0.0,-999.0,93,0.00,,,0.00,Wunderground v.1.15,2013-01-15 11:06:00,
2013-01-15 06:11:00,25.6,23.9,30.23,WSW,253,0.0,-999.0,93,0.00,,,0.00,Wunderground v.1.15,2013-01-15 11:11:00,
2013-01-15 06:17:00,25.5,23.8,30.23,WSW,253,0.0,-999.0,93,0.00,,,0.00,Wunderground v.1.15,2013-01-15 11:17:00,
2013-01-15 06:22:00,25.7,24.0,30.24,WSW,253,0.0,-999.0,93,0.00,,,0.00,Wunderground v.1.15,2013-01-15 11:22:00,
2013-01-15 06:27:00,25.8,24.1,30.24,WSW,253,0.0,-999.0,93,0.00,,,0.00,Wunderground v.1.15,2013-01-15 11:27:00,
2013-01-15 06:33:00,25.8,24.1,30.25,WSW,252,0.0,-999.0,93,0.00,,,0.00,Wunderground v.1.15,2013-01-15 11:33:00,
2013-01-15 06:39:00,26.1,24.6,30.25,WSW,253,0.0,-999.0,94,0.00,,,0.00,Wunderground v.1.15,2013-01-15 11:39:00,
2013-01-15 06:45:00,26.3,24.6,30.26,WSW,253,0.0,-999.0,93,0.00,,,0.00,Wunderground v.1.15,2013-01-15 11:45:00,
2013-01-15 06:50:00,26.4,24.7,30.25,WSW,252,0.0,-999.0,93,0.00,,,0.00,Wunderground v.1.15,2013-01-15 11:50:00,
2013-01-15 06:56:00,26.7,25.2,30.26,WSW,253,0.0,-999.0,94,0.00,,,0.00,Wunderground v.1.15,2013-01-15 11:56:00,
2013-01-15 07:04:00,26.9,25.1,30.26,WSW,253,0.0,-999.0,93,0.00,,,0.00,Wunderground v.1.15,2013-01-15 12:04:00,
2013-01-15 07:10:00,27.1,25.1,30.26,WSW,253,0.0,-999.0,92,0.00,,,0.00,Wunderground v.1.15,2013-01-15 12:10:00,
2013-01-15 07:16:00,27.2,25.2,30.26,WSW,253,0.0,-999.0,92,0.00,,,0.00,Wunderground v.1.15,2013-01-15 12:16:00,
2013-01-15 07:22:00,27.3,25.3,30.27,WSW,252,0.0,-999.0,92,0.00,,,0.00,Wunderground v.1.15,2013-01-15 12:22:00,
2013-01-15 07:27:00,27.4,25.4,30.27,WSW,253,0.0,-999.0,92,0.00,,,0.00,Wunderground v.1.15,2013-01-15 12:27:00,
2013-01-15 07:33:00,27.4,25.4,30.28,WSW,253,0.0,-999.0,92,0.00,,,0.00,Wunderground v.1.15,2013-01-15 12:33:00,
2013-01-15 07:39:00,27.5,25.5,30.28,WSW,253,0.0,-999.0,92,0.00,,,0.00,Wunderground v.1.15,2013-01-15 12:39:00,
2013-01-15 07:44:00,27.6,25.6,30.28,WSW,253,0.0,-999.0,92,0.00,,,0.00,Wunderground v.1.15,2013-01-15 12:44:00,
2013-01-15 07:49:00,27.8,25.8,30.28,WSW,253,0.0,-999.0,92,0.00,,,0.00,Wunderground v.1.15,2013-01-15 12:49:00,
2013-01-15 07:54:00,28.0,25.7,30.28,WSW,252,0.0,-999.0,91,0.00,,,0.00,Wunderground v.1.15,2013-01-15 12:54:00,
2013-01-15 08:00:00,28.1,25.8,30.29,WSW,252,0.0,-999.0,91,0.00,,,0.00,Wunderground v.1.15,2013-01-15 13:00:00,
2013-01-15 08:06:00,28.3,26.0,30.28,WSW,253,0.0,-999.0,91,0.00,,,0.00,Wunderground v.1.15,2013-01-15 13:06:00,
2013-01-15 08:11:00,28.5,26.2,30.28,WSW,253,0.0,-999.0,91,0.00,,,0.00,Wunderground v.1.15,2013-01-15 13:11:00,
2013-01-15 08:16:00,28.8,26.2,30.29,WSW,253,0.0,-999.0,90,0.00,,,0.00,Wunderground v.1.15,2013-01-15 13:16:00,
2013-01-15 08:22:00,29.1,26.5,30.29,WSW,253,0.0,-999.0,90,0.00,,,0.00,Wunderground v.1.15,2013-01-15 13:22:00,
2013-01-15 08:27:00,29.4,26.8,30.29,WSW,253,0.0,-999.0,90,0.00,,,0.00,Wunderground v.1.15,2013-01-15 13:27:00,
2013-01-15 08:33:00,29.7,27.1,30.29,WSW,252,0.0,-999.0,90,0.00,,,0.00,Wunderground v.1.15,2013-01-15 13:33:00,
2013-01-15 08:38:00,30.2,27.6,30.29,WSW,253,0.0,-999.0,90,0.00,,,0.00,Wunderground v.1.15,2013-01-15 13:38:00,
2013-01-15 08:44:00,30.6,27.7,30.29,WSW,253,0.0,-999.0,89,0.00,,,0.00,Wunderground v.1.15,2013-01-15 13:44:00,
2013-01-15 08:50:00,31.0,27.9,30.30,WSW,253,0.0,-999.0,88,0.00,,,0.00,Wunderground v.1.15,2013-01-15 13:50:00,
2013-01-15 08:55:00,31.5,27.2,30.30,WSW,252,0.0,-999.0,84,0.00,,,0.00,Wunderground v.1.15,2013-01-15 13:55:00,
2013-01-15 09:00:00,32.0,27.7,30.29,WSW,252,0.0,-999.0,84,0.00,,,0.00,Wunderground v.1.15,2013-01-15 14:00:00,
2013-01-15 09:06:00,32.4,27.2,30.29,WSW,255,0.0,-999.0,81,0.00,,,0.00,Wunderground v.1.15,2013-01-15 14:06:00,
2013-01-15 09:12:00,32.8,25.7,30.29,NNE,18,0.0,-999.0,75,0.00,,,0.00,Wunderground v.1.15,2013-01-15 14:12:00,
2013-01-15 09:17:00,33.1,25.1,30.29,NNE,30,0.0,-999.0,72,0.00,,,0.00,Wunderground v.1.15,2013-01-15 14:17:00,
2013-01-15 09:23:00,33.4,24.7,30.29,NNE,22,0.0,-999.0,70,0.00,,,0.00,Wunderground v.1.15,2013-01-15 14:23:00,
2013-01-15 09:28:00,33.8,25.0,30.30,NNE,29,0.0,-999.0,70,0.00,,,0.00,Wunderground v.1.15,2013-01-15 14:28:00,
2013-01-15 09:34:00,34.2,24.7,30.30,NNW,328,0.0,-999.0,68,0.00,,,0.00,Wunderground v.1.15,2013-01-15 14:34:00,
2013-01-15 09:39:00,34.6,24.8,30.30,NNW,328,0.0,-999.0,67,0.00,,,0.00,Wunderground v.1.15,2013-01-15 14:39:00,
2013-01-15 09:45:00,34.7,24.1,30.30,North,4,0.0,-999.0,65,0.00,,,0.00,Wunderground v.1.15,2013-01-15 14:45:00,
2013-01-15 09:51:00,34.8,23.5,30.29,NNE,19,0.0,-999.0,63,0.00,,,0.00,Wunderground v.1.15,2013-01-15 14:51:00,
2013-01-15 09:57:00,35.0,23.7,30.29,NNE,20,1.0,-999.0,63,0.00,,,0.00,Wunderground v.1.15,2013-01-15 14:57:00,
2013-01-15 10:04:00,35.2,23.5,30.30,NE,49,1.0,-999.0,62,0.00,,,0.00,Wunderground v.1.15,2013-01-15 15:04:00,
2013-01-15 10:10:00,35.6,23.9,30.30,NNE,20,0.0,-999.0,62,0.00,,,0.00,Wunderground v.1.15,2013-01-15 15:10:00,
2013-01-15 10:15:00,35.7,23.9,30.30,NE,53,1.0,-999.0,62,0.00,,,0.00,Wunderground v.1.15,2013-01-15 15:15:00,
2013-01-15 10:20:00,35.7,23.6,30.30,North,350,1.0,-999.0,61,0.00,,,0.00,Wunderground v.1.15,2013-01-15 15:20:00,
2013-01-15 10:26:00,35.8,23.3,30.29,NE,35,1.0,-999.0,60,0.00,,,0.00,Wunderground v.1.15,2013-01-15 15:26:00,
2013-01-15 10:32:00,36.0,23.4,30.29,WNW,299,1.0,-999.0,60,0.00,,,0.00,Wunderground v.1.15,2013-01-15 15:32:00,
2013-01-15 10:37:00,36.0,22.6,30.29,NNE,18,1.0,-999.0,58,0.00,,,0.00,Wunderground v.1.15,2013-01-15 15:37:00,
2013-01-15 10:43:00,36.1,23.5,30.29,ENE,63,1.0,-999.0,60,0.00,,,0.00,Wunderground v.1.15,2013-01-15 15:43:00,
2013-01-15 10:48:00,36.1,22.7,30.28,NNE,25,1.0,-999.0,58,0.00,,,0.00,Wunderground v.1.15,2013-01-15 15:48:00,
2013-01-15 10:55:00,36.0,22.6,30.28,NNE,28,2.0,-999.0,58,0.00,,,0.00,Wunderground v.1.15,2013-01-15 15:55:00,
2013-01-15 11:00:00,36.1,22.7,30.29,NNE,15,1.0,-999.0,58,0.00,,,0.00,Wunderground v.1.15,2013-01-15 16:00:00,
2013-01-15 11:06:00,36.4,23.0,30.28,NNE,25,1.0,-999.0,58,0.00,,,0.00,Wunderground v.1.15,2013-01-15 16:06:00,
2013-01-15 11:12:00,36.6,22.8,30.28,NNE,30,1.0,-999.0,57,0.00,,,0.00,Wunderground v.1.15,2013-01-15 16:12:00,
2013-01-15 11:18:00,36.5,22.3,30.27,West,278,1.0,-999.0,56,0.00,,,0.00,Wunderground v.1.15,2013-01-15 16:18:00,
2013-01-15 11:24:00,36.6,22.4,30.27,NNE,13,1.0,-999.0,56,0.00,,,0.00,Wunderground v.1.15,2013-01-15 16:24:00,
2013-01-15 11:30:00,36.7,22.9,30.27,NNE,27,1.0,-999.0,57,0.00,,,0.00,Wunderground v.1.15,2013-01-15 16:30:00,
2013-01-15 11:36:00,36.6,22.8,30.27,NE,36,2.0,-999.0,57,0.00,,,0.00,Wunderground v.1.15,2013-01-15 16:36:00,
2013-01-15 11:42:00,36.7,22.9,30.26,NE,55,1.0,-999.0,57,0.00,,,0.00,Wunderground v.1.15,2013-01-15 16:42:00,
2013-01-15 11:47:00,36.6,22.4,30.26,NNE,22,1.0,-999.0,56,0.00,,,0.00,Wunderground v.1.15,2013-01-15 16:47:00,
2013-01-15 11:53:00,36.8,22.6,30.26,NE,43,1.0,-999.0,56,0.00,,,0.00,Wunderground v.1.15,2013-01-15 16:53:00,
2013-01-15 11:58:00,36.5,21.8,30.25,NNE,33,2.0,-999.0,55,0.00,,,0.00,Wunderground v.1.15,2013-01-15 16:58:00,
2013-01-15 12:04:00,36.5,22.3,30.25,North,358,1.0,-999.0,56,0.00,,,0.00,Wunderground v.1.15,2013-01-15 17:04:00,
2013-01-15 12:10:00,36.6,22.4,30.25,NNE,29,1.0,-999.0,56,0.00,,,0.00,Wunderground v.1.15,2013-01-15 17:10:00,
2013-01-15 12:15:00,36.6,22.8,30.25,NNE,13,1.0,-999.0,57,0.00,,,0.00,Wunderground v.1.15,2013-01-15 17:15:00,
2013-01-15 12:21:00,36.8,22.6,30.25,NNE,22,0.0,-999.0,56,0.00,,,0.00,Wunderground v.1.15,2013-01-15 17:21:00,
2013-01-15 12:26:00,36.7,22.5,30.25,NNE,29,1.0,-999.0,56,0.00,,,0.00,Wunderground v.1.15,2013-01-15 17:26:00,
2013-01-15 12:32:00,36.7,22.5,30.25,North,1,2.0,-999.0,56,0.00,,,0.00,Wunderground v.1.15,2013-01-15 17:32:00,
2013-01-15 12:38:00,36.8,23.0,30.25,SW,236,0.0,-999.0,57,0.00,,,0.00,Wunderground v.1.15,2013-01-15 17:38:00,
2013-01-15 12:43:00,37.0,22.7,30.25,WSW,245,0.0,-999.0,56,0.00,,,0.00,Wunderground v.1.15,2013-01-15 17:43:00,
2013-01-15 12:49:00,36.9,22.7,30.25,NNE,27,0.0,-999.0,56,0.00,,,0.00,Wunderground v.1.15,2013-01-15 17:49:00,
2013-01-15 12:55:00,37.0,23.2,30.25,NNE,12,0.0,-999.0,57,0.00,,,0.00,Wunderground v.1.15,2013-01-15 17:55:00,
2013-01-15 13:00:00,37.0,22.7,30.25,WNW,297,0.0,-999.0,56,0.00,,,0.00,Wunderground v.1.15,2013-01-15 18:00:00,
2013-01-15 13:06:00,37.0,22.7,30.24,SSE,158,0.0,-999.0,56,0.00,,,0.00,Wunderground v.1.15,2013-01-15 18:06:00,
2013-01-15 13:12:00,37.1,22.8,30.24,SE,136,0.0,-999.0,56,0.00,,,0.00,Wunderground v.1.15,2013-01-15 18:12:00,
2013-01-15 13:18:00,37.3,23.4,30.25,SE,136,0.0,-999.0,57,0.00,,,0.00,Wunderground v.1.15,2013-01-15 18:18:00,
2013-01-15 13:23:00,37.6,23.3,30.24,South,187,0.0,-999.0,56,0.00,,,0.00,Wunderground v.1.15,2013-01-15 18:23:00,
2013-01-15 13:28:00,37.9,23.2,30.24,SW,234,0.0,-999.0,55,0.00,,,0.00,Wunderground v.1.15,2013-01-15 18:28:00,
2013-01-15 13:33:00,37.9,22.7,30.24,SSW,198,0.0,-999.0,54,0.00,,,0.00,Wunderground v.1.15,2013-01-15 18:33:00,
2013-01-15 13:39:00,38.1,23.3,30.24,SW,215,0.0,-999.0,55,0.00,,,0.00,Wunderground v.1.15,2013-01-15 18:39:00,
2013-01-15 13:44:00,38.1,22.9,30.24,SW,215,0.0,-999.0,54,0.00,,,0.00,Wunderground v.1.15,2013-01-15 18:44:00,
2013-01-15 13:50:00,37.9,23.2,30.24,South,169,0.0,-999.0,55,0.00,,,0.00,Wunderground v.1.15,2013-01-15 18:50:00,
2013-01-15 13:56:00,37.7,23.0,30.24,SSW,207,0.0,-999.0,55,0.00,,,0.00,Wunderground v.1.15,2013-01-15 18:56:00,
2013-01-15 14:04:00,37.5,23.2,30.24,SSE,165,1.0,-999.0,56,0.00,,,0.00,Wunderground v.1.15,2013-01-15 19:04:00,
2013-01-15 14:10:00,37.4,23.1,30.24,SW,224,0.0,-999.0,56,0.00,,,0.00,Wunderground v.1.15,2013-01-15 19:10:00,
2013-01-15 14:15:00,37.4,23.1,30.25,South,188,0.0,-999.0,56,0.00,,,0.00,Wunderground v.1.15,2013-01-15 19:15:00,
2013-01-15 14:20:00,37.7,23.0,30.25,South,190,0.0,-999.0,55,0.00,,,0.00,Wunderground v.1.15,2013-01-15 19:20:00,
2013-01-15 14:25:00,37.7,23.0,30.25,SSW,210,0.0,-999.0,55,0.00,,,0.00,Wunderground v.1.15,2013-01-15 19:25:00,
2013-01-15 14:30:00,37.9,23.2,30.25,SSW,210,0.0,-999.0,55,0.00,,,0.00,Wunderground v.1.15,2013-01-15 19:30:00,
2013-01-15 14:36:00,37.8,22.6,30.24,NE,50,0.0,-999.0,54,0.00,,,0.00,Wunderground v.1.15,2013-01-15 19:36:00,
2013-01-15 14:42:00,37.5,23.2,30.24,NE,39,1.0,-999.0,56,0.00,,,0.00,Wunderground v.1.15,2013-01-15 19:42:00,
2013-01-15 14:48:00,37.5,23.2,30.24,South,180,0.0,-999.0,56,0.00,,,0.00,Wunderground v.1.15,2013-01-15 19:48:00,
2013-01-15 14:53:00,37.3,23.4,30.25,ENE,65,0.0,-999.0,57,0.00,,,0.00,Wunderground v.1.15,2013-01-15 19:53:00,
2013-01-15 14:58:00,37.2,23.4,30.25,SE,141,0.0,-999.0,57,0.00,,,0.00,Wunderground v.1.15,2013-01-15 19:58:00,
2013-01-15 15:04:00,36.9,23.5,30.25,SE,142,0.0,-999.0,58,0.00,,,0.00,Wunderground v.1.15,2013-01-15 20:04:00,
2013-01-15 15:09:00,36.8,23.4,30.25,ESE,123,0.0,-999.0,58,0.00,,,0.00,Wunderground v.1.15,2013-01-15 20:09:00,
2013-01-15 15:15:00,36.6,24.4,30.25,ENE,58,0.0,-999.0,61,0.00,,,0.00,Wunderground v.1.15,2013-01-15 20:15:00,
2013-01-15 15:20:00,36.3,23.3,30.25,ESE,121,0.0,-999.0,59,0.00,,,0.00,Wunderground v.1.15,2013-01-15 20:20:00,
2013-01-15 15:26:00,36.0,23.8,30.25,ESE,120,0.0,-999.0,61,0.00,,,0.00,Wunderground v.1.15,2013-01-15 20:26:00,
2013-01-15 15:32:00,35.6,23.1,30.25,South,170,0.0,-999.0,60,0.00,,,0.00,Wunderground v.1.15,2013-01-15 20:32:00,
2013-01-15 15:38:00,35.3,23.2,30.24,SSW,200,0.0,-999.0,61,0.00,,,0.00,Wunderground v.1.15,2013-01-15 20:38:00,
2013-01-15 15:43:00,35.0,23.3,30.25,SSW,200,0.0,-999.0,62,0.00,,,0.00,Wunderground v.1.15,2013-01-15 20:43:00,
2013-01-15 15:48:00,34.8,23.1,30.25,SSW,200,0.0,-999.0,62,0.00,,,0.00,Wunderground v.1.15,2013-01-15 20:48:00,
2013-01-15 15:53:00,34.3,23.4,30.23,SSW,200,0.0,-999.0,64,0.00,,,0.00,Wunderground v.1.15,2013-01-15 20:53:00,
2013-01-15 15:58:00,33.7,23.5,30.23,SSW,200,0.0,-999.0,66,0.00,,,0.00,Wunderground v.1.15,2013-01-15 20:58:00,
2013-01-15 16:04:00,33.5,23.4,30.23,SSW,199,0.0,-999.0,66,0.00,,,0.00,Wunderground v.1.15,2013-01-15 21:04:00,
2013-01-15 16:09:00,32.9,23.1,30.22,SSW,200,0.0,-999.0,67,0.00,,,0.00,Wunderground v.1.15,2013-01-15 21:09:00,
2013-01-15 16:15:00,32.5,22.8,30.23,SSW,200,0.0,-999.0,67,0.00,,,0.00,Wunderground v.1.15,2013-01-15 21:15:00,
2013-01-15 16:20:00,32.2,23.2,30.23,SSW,200,0.0,-999.0,69,0.00,,,0.00,Wunderground v.1.15,2013-01-15 21:20:00,
2013-01-15 16:25:00,31.9,23.6,30.23,SSW,200,0.0,-999.0,71,0.00,,,0.00,Wunderground v.1.15,2013-01-15 21:25:00,
2013-01-15 16:31:00,31.6,23.3,30.24,SSW,200,0.0,-999.0,71,0.00,,,0.00,Wunderground v.1.15,2013-01-15 21:31:00,
2013-01-15 16:36:00,31.4,23.1,30.24,SSW,200,0.0,-999.0,71,0.00,,,0.00,Wunderground v.1.15,2013-01-15 21:36:00,
2013-01-15 16:41:00,31.0,23.4,30.24,SSW,200,0.0,-999.0,73,0.00,,,0.00,Wunderground v.1.15,2013-01-15 21:41:00,
2013-01-15 16:47:00,30.5,23.2,30.24,SSW,200,0.0,-999.0,74,0.00,,,0.00,Wunderground v.1.15,2013-01-15 21:47:00,
2013-01-15 16:52:00,30.2,23.2,30.25,SSW,200,0.0,-999.0,75,0.00,,,0.00,Wunderground v.1.15,2013-01-15 21:52:00,
2013-01-15 16:57:00,29.8,23.2,30.25,SSW,200,0.0,-999.0,76,0.00,,,0.00,Wunderground v.1.15,2013-01-15 21:57:00,
2013-01-15 17:04:00,29.4,23.1,30.25,SSW,200,0.0,-999.0,77,0.00,,,0.00,Wunderground v.1.15,2013-01-15 22:04:00,
2013-01-15 17:10:00,29.1,23.4,30.25,SSW,200,0.0,-999.0,79,0.00,,,0.00,Wunderground v.1.15,2013-01-15 22:10:00,
2013-01-15 17:16:00,28.7,23.6,30.25,SSW,200,0.0,-999.0,81,0.00,,,0.00,Wunderground v.1.15,2013-01-15 22:16:00,
2013-01-15 17:22:00,28.5,23.7,30.25,SSW,200,0.0,-999.0,82,0.00,,,0.00,Wunderground v.1.15,2013-01-15 22:22:00,
2013-01-15 17:27:00,28.3,23.5,30.25,SSW,200,0.0,-999.0,82,0.00,,,0.00,Wunderground v.1.15,2013-01-15 22:27:00,
2013-01-15 17:33:00,28.1,23.3,30.25,SSW,200,0.0,-999.0,82,0.00,,,0.00,Wunderground v.1.15,2013-01-15 22:33:00,
2013-01-15 17:38:00,27.8,23.3,30.25,SSW,200,0.0,-999.0,83,0.00,,,0.00,Wunderground v.1.15,2013-01-15 22:38:00,
2013-01-15 17:44:00,27.4,23.2,30.25,SSW,200,0.0,-999.0,84,0.00,,,0.00,Wunderground v.1.15,2013-01-15 22:44:00,
2013-01-15 17:49:00,27.4,23.5,30.25,SSW,200,0.0,-999.0,85,0.00,,,0.00,Wunderground v.1.15,2013-01-15 22:49:00,
2013-01-15 17:55:00,27.5,23.6,30.25,SSW,200,0.0,-999.0,85,0.00,,,0.00,Wunderground v.1.15,2013-01-15 22:55:00,
2013-01-15 18:00:00,27.4,23.8,30.25,SSW,200,0.0,-999.0,86,0.00,,,0.00,Wunderground v.1.15,2013-01-15 23:00:00,
2013-01-15 18:06:00,27.4,23.5,30.25,SSW,200,0.0,-999.0,85,0.00,,,0.00,Wunderground v.1.15,2013-01-15 23:06:00,
2013-01-15 18:11:00,27.4,23.8,30.26,SSW,200,0.0,-999.0,86,0.00,,,0.00,Wunderground v.1.15,2013-01-15 23:11:00,
2013-01-15 18:16:00,27.3,23.7,30.26,SSW,200,0.0,-999.0,86,0.00,,,0.00,Wunderground v.1.15,2013-01-15 23:16:00,
2013-01-15 18:22:00,27.0,23.9,30.26,SSW,200,0.0,-999.0,88,0.00,,,0.00,Wunderground v.1.15,2013-01-15 23:22:00,
2013-01-15 18:28:00,27.0,23.9,30.26,SSW,200,0.0,-999.0,88,0.00,,,0.00,Wunderground v.1.15,2013-01-15 23:28:00,
2013-01-15 18:34:00,27.0,23.9,30.26,SSW,200,0.0,-999.0,88,0.00,,,0.00,Wunderground v.1.15,2013-01-15 23:34:00,
2013-01-15 18:39:00,27.1,23.7,30.26,SSW,200,0.0,-999.0,87,0.00,,,0.00,Wunderground v.1.15,2013-01-15 23:39:00,
2013-01-15 18:44:00,27.0,23.6,30.26,SSW,200,0.0,-999.0,87,0.00,,,0.00,Wunderground v.1.15,2013-01-15 23:44:00,
2013-01-15 18:49:00,27.0,23.6,30.27,SSW,200,0.0,-999.0,87,0.00,,,0.00,Wunderground v.1.15,2013-01-15 23:49:00,
2013-01-15 18:54:00,27.0,23.6,30.27,SSW,200,0.0,-999.0,87,0.00,,,0.00,Wunderground v.1.15,2013-01-15 23:54:00,
2013-01-15 18:59:00,26.8,23.4,30.26,SSW,200,0.0,-999.0,87,0.00,,,0.00,Wunderground v.1.15,2013-01-15 23:59:00,
2013-01-15 19:04:00,26.9,23.8,30.26,SSW,200,0.0,-999.0,88,0.00,,,0.00,Wunderground v.1.15,2013-01-16 00:04:00,
2013-01-15 19:10:00,26.8,23.7,30.26,SSW,200,0.0,-999.0,88,0.00,,,0.00,Wunderground v.1.15,2013-01-16 00:10:00,
2013-01-15 19:15:00,26.6,23.5,30.26,SSW,200,0.0,-999.0,88,0.00,,,0.00,Wunderground v.1.15,2013-01-16 00:15:00,
2013-01-15 19:21:00,26.6,23.5,30.25,SSW,200,0.0,-999.0,88,0.00,,,0.00,Wunderground v.1.15,2013-01-16 00:21:00,
2013-01-15 19:27:00,26.5,23.7,30.25,SSW,200,0.0,-999.0,89,0.00,,,0.00,Wunderground v.1.15,2013-01-16 00:27:00,
2013-01-15 19:32:00,26.4,23.6,30.26,SSW,200,0.0,-999.0,89,0.00,,,0.00,Wunderground v.1.15,2013-01-16 00:32:00,
2013-01-15 19:38:00,26.5,23.7,30.25,SSW,200,0.0,-999.0,89,0.00,,,0.00,Wunderground v.1.15,2013-01-16 00:38:00,
2013-01-15 19:43:00,26.5,23.7,30.25,SSW,200,0.0,-999.0,89,0.00,,,0.00,Wunderground v.1.15,2013-01-16 00:43:00,
2013-01-15 19:48:00,26.6,24.1,30.26,SSW,200,0.0,-999.0,90,0.00,,,0.00,Wunderground v.1.15,2013-01-16 00:48:00,
2013-01-15 19:53:00,26.6,24.1,30.26,SSW,200,0.0,-999.0,90,0.00,,,0.00,Wunderground v.1.15,2013-01-16 00:53:00,
2013-01-15 19:59:00,26.6,24.1,30.25,SSW,200,0.0,-999.0,90,0.00,,,0.00,Wunderground v.1.15,2013-01-16 00:59:00,
2013-01-15 20:04:00,26.6,24.1,30.26,SSW,200,0.0,-999.0,90,0.00,,,0.00,Wunderground v.1.15,2013-01-16 01:04:00,
2013-01-15 20:10:00,26.8,24.3,30.25,SSW,200,0.0,-999.0,90,0.00,,,0.00,Wunderground v.1.15,2013-01-16 01:10:00,
2013-01-15 20:15:00,27.3,24.2,30.25,South,176,0.0,-999.0,88,0.00,,,0.00,Wunderground v.1.15,2013-01-16 01:15:00,
2013-01-15 20:20:00,27.6,24.2,30.26,South,176,0.0,-999.0,87,0.00,,,0.00,Wunderground v.1.15,2013-01-16 01:20:00,
2013-01-15 20:26:00,28.1,24.2,30.25,NNE,32,0.0,-999.0,85,0.00,,,0.00,Wunderground v.1.15,2013-01-16 01:26:00,
2013-01-15 20:32:00,28.3,23.8,30.26,NNE,24,0.0,-999.0,83,0.00,,,0.00,Wunderground v.1.15,2013-01-16 01:32:00,
2013-01-15 20:38:00,28.8,24.0,30.25,NNE,30,0.0,-999.0,82,0.00,,,0.00,Wunderground v.1.15,2013-01-16 01:38:00,
2013-01-15 20:44:00,29.0,23.9,30.25,NNE,30,0.0,-999.0,81,0.00,,,0.00,Wunderground v.1.15,2013-01-16 01:44:00,
2013-01-15 20:50:00,29.2,23.8,30.25,NNE,32,0.0,-999.0,80,0.00,,,0.00,Wunderground v.1.15,2013-01-16 01:50:00,
2013-01-15 20:56:00,29.2,23.5,30.26,NNE,32,0.0,-999.0,79,0.00,,,0.00,Wunderground v.1.15,2013-01-16 01:56:00,
2013-01-15 21:04:00,29.1,23.7,30.26,NNE,32,0.0,-999.0,80,0.00,,,0.00,Wunderground v.1.15,2013-01-16 02:04:00,
2013-01-15 21:10:00,28.9,23.5,30.26,NNE,32,0.0,-999.0,80,0.00,,,0.00,Wunderground v.1.15,2013-01-16 02:10:00,
2013-01-15 21:15:00,28.9,23.2,30.26,NNE,32,0.0,-999.0,79,0.00,,,0.00,Wunderground v.1.15,2013-01-16 02:15:00,
2013-01-15 21:20:00,28.9,23.5,30.26,NNE,32,0.0,-999.0,80,0.00,,,0.00,Wunderground v.1.15,2013-01-16 02:20:00,
2013-01-15 21:26:00,29.1,23.1,30.26,NNE,13,0.0,-999.0,78,0.00,,,0.00,Wunderground v.1.15,2013-01-16 02:26:00,
2013-01-15 21:31:00,29.3,22.7,30.25,NNE,15,0.0,-999.0,76,0.00,,,0.00,Wunderground v.1.15,2013-01-16 02:31:00,
2013-01-15 21:36:00,29.6,22.3,30.25,NNE,19,0.0,-999.0,74,0.00,,,0.00,Wunderground v.1.15,2013-01-16 02:36:00,
2013-01-15 21:41:00,29.8,21.9,30.25,NNE,33,1.0,-999.0,72,0.00,,,0.00,Wunderground v.1.15,2013-01-16 02:41:00,
2013-01-15 21:47:00,30.0,21.7,30.25,NNE,12,1.0,-999.0,71,0.00,,,0.00,Wunderground v.1.15,2013-01-16 02:47:00,
2013-01-15 21:53:00,30.0,21.4,30.25,NE,34,1.0,-999.0,70,0.00,,,0.00,Wunderground v.1.15,2013-01-16 02:53:00,
2013-01-15 21:59:00,30.1,21.2,30.24,NNE,33,1.0,-999.0,69,0.00,,,0.00,Wunderground v.1.15,2013-01-16 02:59:00,
2013-01-15 22:04:00,30.1,21.2,30.24,NE,35,1.0,-999.0,69,0.00,,,0.00,Wunderground v.1.15,2013-01-16 03:04:00,
2013-01-15 22:09:00,30.3,20.6,30.24,North,4,2.0,-999.0,67,0.00,,,0.00,Wunderground v.1.15,2013-01-16 03:09:00,
2013-01-15 22:15:00,30.4,20.7,30.24,NNE,27,2.0,-999.0,67,0.00,,,0.00,Wunderground v.1.15,2013-01-16 03:15:00,
2013-01-15 22:21:00,30.3,20.6,30.24,ENE,67,2.0,-999.0,67,0.00,,,0.00,Wunderground v.1.15,2013-01-16 03:21:00,
2013-01-15 22:27:00,30.2,20.6,30.24,North,8,1.0,-999.0,67,0.00,,,0.00,Wunderground v.1.15,2013-01-16 03:27:00,
2013-01-15 22:33:00,30.2,20.6,30.24,NNE,12,1.0,-999.0,67,0.00,,,0.00,Wunderground v.1.15,2013-01-16 03:33:00,
2013-01-15 22:39:00,30.0,20.7,30.24,NE,50,0.0,-999.0,68,0.00,,,0.00,Wunderground v.1.15,2013-01-16 03:39:00,
2013-01-15 22:44:00,29.9,20.6,30.24,NNE,17,0.0,-999.0,68,0.00,,,0.00,Wunderground v.1.15,2013-01-16 03:44:00,
2013-01-15 22:49:00,29.9,20.6,30.24,North,9,0.0,-999.0,68,0.00,,,0.00,Wunderground v.1.15,2013-01-16 03:49:00,
2013-01-15 22:54:00,29.8,20.5,30.25,NNE,30,0.0,-999.0,68,0.00,,,0.00,Wunderground v.1.15,2013-01-16 03:54:00,
2013-01-15 22:59:00,29.7,20.4,30.25,NNE,30,0.0,-999.0,68,0.00,,,0.00,Wunderground v.1.15,2013-01-16 03:59:00,
2013-01-15 23:04:00,29.6,20.7,30.25,NNE,30,0.0,-999.0,69,0.00,,,0.00,Wunderground v.1.15,2013-01-16 04:04:00,
2013-01-15 23:10:00,29.5,20.6,30.25,NNE,30,0.0,-999.0,69,0.00,,,0.00,Wunderground v.1.15,2013-01-16 04:10:00,
2013-01-15 23:15:00,29.4,20.5,30.25,NNE,28,0.0,-999.0,69,0.00,,,0.00,Wunderground v.1.15,2013-01-16 04:15:00,
2013-01-15 23:20:00,29.4,20.5,30.24,NNE,29,0.0,-999.0,69,0.00,,,0.00,Wunderground v.1.15,2013-01-16 04:20:00,
2013-01-15 23:26:00,29.2,20.6,30.24,NNE,13,0.0,-999.0,70,0.00,,,0.00,Wunderground v.1.15,2013-01-16 04:26:00,
2013-01-15 23:31:00,29.2,20.6,30.24,NNE,18,0.0,-999.0,70,0.00,,,0.00,Wunderground v.1.15,2013-01-16 04:31:00,
2013-01-15 23:37:00,29.3,20.7,30.24,NNE,19,0.0,-999.0,70,0.00,,,0.00,Wunderground v.1.15,2013-01-16 04:37:00,
2013-01-15 23:43:00,29.3,20.7,30.24,NNE,19,0.0,-999.0,70,0.00,,,0.00,Wunderground v.1.15,2013-01-16 04:43:00,
2013-01-15 23:49:00,29.3,20.7,30.24,NNE,18,0.0,-999.0,70,0.00,,,0.00,Wunderground v.1.15,2013-01-16 04:49:00,
2013-01-15 23:55:00,29.2,21.0,30.24,NNE,19,0.0,-999.0,71,0.00,,,0.00,Wunderground v.1.15,2013-01-16 04:55:00,